createdAt,value
2023-04-08T00:00:36.965Z,73.12
2023-04-08T00:02:39.681Z,73.45
2023-04-08T00:04:42.575Z,73.50
2023-04-08T00:06:45.438Z,73.76
2023-04-08T00:08:48.140Z,73.73
2023-04-08T00:10:50.995Z,73.67
2023-04-08T00:12:53.569Z,73.70
2023-04-08T00:14:58.010Z,73.83
2023-04-08T00:17:00.698Z,73.48
2023-04-08T00:19:03.345Z,74.04
2023-04-08T00:21:05.995Z,73.72
2023-04-08T00:23:08.619Z,73.99
2023-04-08T00:25:11.163Z,73.86
2023-04-08T00:27:13.709Z,73.89
2023-04-08T00:29:16.258Z,73.26
2023-04-08T00:31:20.620Z,73.10
2023-04-08T00:33:24.848Z,73.35
2023-04-08T00:35:27.558Z,73.43
2023-04-08T00:37:30.099Z,73.68
2023-04-08T00:39:32.668Z,73.88
2023-04-08T00:41:35.760Z,73.87
2023-04-08T00:43:38.338Z,73.68
2023-04-08T00:45:40.883Z,73.21
2023-04-08T00:47:44.853Z,72.62
2023-04-08T00:49:47.451Z,72.37
2023-04-08T00:51:49.987Z,72.70
2023-04-08T00:53:52.529Z,72.55
2023-04-08T00:55:55.149Z,72.06
2023-04-08T00:57:58.205Z,72.35
2023-04-08T01:00:01.049Z,72.42
2023-04-08T01:02:13.717Z,73.11
2023-04-08T01:04:27.715Z,73.05
2023-04-08T01:06:35.206Z,73.69
2023-04-08T01:08:41.141Z,73.17
2023-04-08T01:10:45.953Z,73.35
2023-04-08T01:12:52.791Z,73.68
2023-04-08T01:15:01.476Z,73.64
2023-04-08T01:17:05.668Z,74.16
2023-04-08T01:19:09.819Z,74.31
2023-04-08T01:21:15.855Z,74.18
2023-04-08T01:23:24.416Z,73.09
2023-04-08T01:25:32.644Z,73.89
2023-04-08T01:27:37.498Z,73.84
2023-04-08T01:29:41.361Z,74.01
2023-04-08T01:31:45.329Z,74.37
2023-04-08T01:33:50.081Z,74.28
2023-04-08T01:35:54.029Z,74.37
2023-04-08T01:37:57.645Z,74.54
2023-04-08T01:40:01.826Z,74.18
2023-04-08T01:42:05.440Z,74.02
2023-04-08T01:44:10.263Z,74.30
2023-04-08T01:46:14.629Z,74.18
2023-04-08T01:48:17.424Z,73.20
2023-04-08T01:50:21.269Z,73.41
2023-04-08T01:52:26.411Z,73.67
2023-04-08T01:54:29.004Z,74.25
2023-04-08T01:56:34.298Z,74.35
2023-04-08T01:58:40.539Z,73.89
2023-04-08T02:00:45.429Z,74.44
2023-04-08T02:02:49.095Z,74.04
2023-04-08T02:04:51.928Z,74.29
2023-04-08T02:06:54.692Z,74.13
2023-04-08T02:08:57.727Z,74.15
2023-04-08T02:11:00.304Z,74.33
2023-04-08T02:13:03.413Z,74.36
2023-04-08T02:15:07.051Z,74.02
2023-04-08T02:17:14.628Z,74.37
2023-04-08T02:19:27.013Z,74.04
2023-04-08T02:21:37.435Z,74.04
2023-04-08T02:23:42.317Z,74.15
2023-04-08T02:25:47.761Z,74.20
2023-04-08T02:27:52.835Z,73.79
2023-04-08T02:29:58.031Z,73.59
2023-04-08T02:32:03.161Z,73.67
2023-04-08T02:34:09.273Z,73.57
2023-04-08T02:36:13.352Z,73.99
2023-04-08T02:38:16.215Z,73.93
2023-04-08T02:40:29.797Z,73.60
2023-04-08T02:42:32.349Z,73.69
2023-04-08T02:44:34.907Z,74.04
2023-04-08T02:46:37.445Z,74.17
2023-04-08T02:48:40.019Z,73.98
2023-04-08T02:50:46.941Z,74.05
2023-04-08T02:52:49.475Z,73.83
2023-04-08T02:54:52.010Z,73.59
2023-04-08T02:56:54.634Z,73.83
2023-04-08T02:58:57.188Z,73.45
2023-04-08T03:00:59.821Z,73.27
2023-04-08T03:03:02.570Z,73.24
2023-04-08T03:05:06.481Z,73.06
2023-04-08T03:07:10.390Z,72.93
2023-04-08T03:09:12.929Z,73.08
2023-04-08T03:11:15.454Z,73.06
2023-04-08T03:13:18.455Z,73.00
2023-04-08T03:15:21.224Z,72.79
2023-04-08T03:17:23.817Z,72.70
2023-04-08T03:19:26.369Z,72.62
2023-04-08T03:21:31.669Z,72.81
2023-04-08T03:23:35.740Z,72.58
2023-04-08T03:25:38.392Z,72.24
2023-04-08T03:27:40.996Z,72.81
2023-04-08T03:29:45.716Z,72.51
2023-04-08T03:31:48.375Z,72.42
2023-04-08T03:33:51.091Z,72.54
2023-04-08T03:35:54.829Z,72.54
2023-04-08T03:37:57.448Z,72.75
2023-04-08T03:40:01.774Z,72.51
2023-04-08T03:42:04.611Z,72.58
2023-04-08T03:44:07.250Z,72.36
2023-04-08T03:46:09.839Z,72.56
2023-04-08T03:48:12.418Z,72.34
2023-04-08T03:50:14.971Z,72.79
2023-04-08T03:52:17.501Z,72.88
2023-04-08T03:54:20.087Z,72.47
2023-04-08T03:56:25.068Z,72.26
2023-04-08T03:58:27.682Z,72.44
2023-04-08T04:00:30.222Z,72.73
2023-04-08T04:02:32.880Z,72.57
2023-04-08T04:04:36.904Z,72.84
2023-04-08T04:06:39.571Z,72.73
2023-04-08T04:08:42.125Z,72.54
2023-04-08T04:10:44.725Z,72.80
2023-04-08T04:12:48.719Z,72.24
2023-04-08T04:14:51.386Z,72.30
2023-04-08T04:16:53.974Z,72.32
2023-04-08T04:18:56.562Z,72.49
2023-04-08T04:20:59.145Z,72.74
2023-04-08T04:23:01.749Z,73.16
2023-04-08T04:25:04.352Z,73.18
2023-04-08T04:27:09.783Z,73.26
2023-04-08T04:29:13.657Z,73.55
2023-04-08T04:31:20.712Z,73.34
2023-04-08T04:33:23.343Z,73.73
2023-04-08T04:35:25.943Z,73.04
2023-04-08T04:37:28.561Z,73.17
2023-04-08T04:39:31.096Z,73.73
2023-04-08T04:41:35.214Z,73.75
2023-04-08T04:43:37.822Z,73.55
2023-04-08T04:45:41.806Z,74.04
2023-04-08T04:47:44.358Z,74.57
2023-04-08T04:49:47.441Z,74.51
2023-04-08T04:51:50.221Z,74.44
2023-04-08T04:53:52.770Z,74.54
2023-04-08T04:55:55.473Z,74.76
2023-04-08T04:57:58.028Z,74.72
2023-04-08T05:00:01.351Z,74.71
2023-04-08T05:02:06.707Z,74.71
2023-04-08T05:04:09.457Z,74.19
2023-04-08T05:06:12.321Z,73.74
2023-04-08T05:08:14.838Z,74.13
2023-04-08T05:10:17.358Z,74.24
2023-04-08T05:12:20.617Z,74.31
2023-04-08T05:14:23.176Z,74.58
2023-04-08T05:16:25.808Z,74.35
2023-04-08T05:18:29.694Z,74.65
2023-04-08T05:20:32.324Z,74.44
2023-04-08T05:22:35.406Z,74.63
2023-04-08T05:24:37.956Z,74.31
2023-04-08T05:26:40.591Z,74.54
2023-04-08T05:28:44.476Z,74.22
2023-04-08T05:30:50.528Z,74.08
2023-04-08T05:32:53.209Z,74.34
2023-04-08T05:34:57.257Z,74.45
2023-04-08T05:36:59.850Z,74.64
2023-04-08T05:39:03.463Z,74.41
2023-04-08T05:41:06.341Z,74.45
2023-04-08T05:43:08.897Z,74.49
2023-04-08T05:45:12.158Z,74.13
2023-04-08T05:47:14.866Z,73.10
2023-04-08T05:49:18.222Z,73.85
2023-04-08T05:51:22.091Z,73.98
2023-04-08T05:53:25.392Z,73.97
2023-04-08T05:55:28.165Z,74.18
2023-04-08T05:57:33.460Z,73.98
2023-04-08T05:59:36.224Z,74.11
2023-04-08T06:01:40.881Z,72.47
2023-04-08T06:03:43.700Z,73.23
2023-04-08T06:05:46.508Z,71.52
2023-04-08T06:07:50.485Z,72.22
2023-04-08T06:09:53.112Z,72.87
2023-04-08T06:11:57.417Z,72.93
2023-04-08T06:14:00.199Z,73.15
2023-04-08T06:16:12.613Z,73.26
2023-04-08T06:18:15.226Z,73.33
2023-04-08T06:20:17.780Z,73.14
2023-04-08T06:22:20.351Z,73.39
2023-04-08T06:24:24.325Z,73.25
2023-04-08T06:26:27.747Z,72.90
2023-04-08T06:28:30.768Z,72.85
2023-04-08T06:30:33.339Z,71.82
2023-04-08T06:32:35.918Z,72.17
2023-04-08T06:34:38.526Z,72.10
2023-04-08T06:36:41.536Z,72.53
2023-04-08T06:38:44.098Z,72.51
2023-04-08T06:40:48.003Z,72.29
2023-04-08T06:42:50.615Z,72.11
2023-04-08T06:44:53.208Z,71.94
2023-04-08T06:46:55.962Z,71.79
2023-04-08T06:48:58.519Z,72.07
2023-04-08T06:51:02.012Z,71.53
2023-04-08T06:53:04.562Z,71.79
2023-04-08T06:55:07.656Z,71.80
2023-04-08T06:57:11.709Z,71.46
2023-04-08T06:59:14.237Z,71.64
2023-04-08T07:01:17.732Z,71.97
2023-04-08T07:03:20.340Z,71.57
2023-04-08T07:05:22.920Z,71.67
2023-04-08T07:07:25.587Z,71.75
2023-04-08T07:09:28.347Z,71.86
2023-04-08T07:11:31.073Z,71.36
2023-04-08T07:13:34.996Z,71.60
2023-04-08T07:15:37.552Z,71.62
2023-04-08T07:17:40.431Z,72.08
2023-04-08T07:19:44.009Z,71.56
2023-04-08T07:21:46.931Z,71.59
2023-04-08T07:23:49.480Z,72.18
2023-04-08T07:25:52.463Z,71.80
2023-04-08T07:27:55.022Z,71.65
2023-04-08T07:29:58.913Z,71.74
2023-04-08T07:32:01.505Z,71.81
2023-04-08T07:34:04.072Z,71.68
2023-04-08T07:36:07.080Z,71.72
2023-04-08T07:38:11.561Z,71.61
2023-04-08T07:40:14.190Z,71.58
2023-04-08T07:42:16.716Z,71.78
2023-04-08T07:44:19.942Z,71.48
2023-04-08T07:46:23.938Z,71.44
2023-04-08T07:48:26.478Z,71.31
2023-04-08T07:50:29.026Z,71.42
2023-04-08T07:52:31.689Z,71.73
2023-04-08T07:54:34.952Z,71.36
2023-04-08T07:56:40.196Z,71.43
2023-04-08T07:58:43.564Z,71.57
2023-04-08T08:00:46.483Z,71.18
2023-04-08T08:02:50.466Z,70.80
2023-04-08T08:04:53.403Z,71.05
2023-04-08T08:06:55.991Z,70.81
2023-04-08T08:08:58.579Z,70.60
2023-04-08T08:11:01.109Z,70.33
2023-04-08T08:13:03.693Z,70.23
2023-04-08T08:15:07.689Z,70.31
2023-04-08T08:17:10.244Z,69.95
2023-04-08T08:19:14.567Z,70.12
2023-04-08T08:21:17.258Z,70.03
2023-04-08T08:23:19.858Z,70.25
2023-04-08T08:25:24.137Z,69.70
2023-04-08T08:27:28.469Z,69.83
2023-04-08T08:29:31.007Z,69.86
2023-04-08T08:31:33.599Z,69.52
2023-04-08T08:33:36.411Z,69.72
2023-04-08T08:35:40.317Z,69.29
2023-04-08T08:37:42.944Z,68.84
2023-04-08T08:39:45.496Z,68.92
2023-04-08T08:41:48.104Z,68.59
2023-04-08T08:43:51.085Z,68.95
2023-04-08T08:45:54.682Z,68.67
2023-04-08T08:47:57.448Z,68.95
2023-04-08T08:50:00.205Z,68.94
2023-04-08T08:52:04.129Z,68.91
2023-04-08T08:54:06.686Z,68.33
2023-04-08T08:58:15.800Z,68.54
2023-04-08T09:00:18.601Z,68.58
2023-04-08T09:02:26.832Z,68.38
2023-04-08T09:04:29.995Z,68.32
2023-04-08T09:06:32.767Z,68.23
2023-04-08T09:08:37.943Z,67.84
2023-04-08T09:10:40.487Z,67.38
2023-04-08T09:12:55.551Z,67.73
2023-04-08T09:15:05.438Z,67.45
2023-04-08T09:17:08.725Z,67.71
2023-04-08T09:19:12.279Z,67.84
2023-04-08T09:21:16.848Z,67.54
2023-04-08T09:23:19.434Z,66.24
2023-04-08T09:25:26.631Z,66.91
2023-04-08T09:27:36.229Z,67.01
2023-04-08T09:29:40.018Z,66.96
2023-04-08T09:31:42.652Z,66.98
2023-04-08T09:33:45.269Z,67.36
2023-04-08T09:35:47.979Z,67.53
2023-04-08T09:37:51.502Z,67.81
2023-04-08T09:39:54.106Z,66.95
2023-04-08T09:42:00.971Z,67.42
2023-04-08T09:44:05.687Z,67.17
2023-04-08T09:46:12.532Z,64.85
2023-04-08T09:48:19.276Z,64.76
2023-04-08T09:50:26.320Z,65.11
2023-04-08T09:52:34.440Z,65.63
2023-04-08T09:54:45.366Z,65.46
2023-04-08T09:56:52.477Z,65.14
2023-04-08T09:59:01.110Z,65.15
2023-04-08T10:01:03.859Z,64.52
2023-04-08T10:03:12.394Z,64.55
2023-04-08T10:05:16.861Z,65.15
2023-04-08T10:07:20.375Z,64.20
2023-04-08T10:09:23.483Z,64.24
2023-04-08T10:11:26.217Z,64.01
2023-04-08T10:13:29.626Z,63.35
2023-04-08T10:15:34.429Z,63.10
2023-04-08T10:17:37.152Z,61.98
2023-04-08T10:19:41.932Z,60.63
2023-04-08T10:21:48.482Z,60.35
2023-04-08T10:23:57.619Z,59.96
2023-04-08T10:26:00.185Z,60.27
2023-04-08T10:30:52.056Z,57.92
2023-04-08T10:32:56.361Z,58.02
2023-04-08T10:34:59.034Z,56.97
2023-04-08T10:37:02.215Z,55.84
2023-04-08T10:39:04.968Z,54.96
2023-04-08T10:41:09.573Z,54.49
2023-04-08T10:43:13.594Z,55.03
2023-04-08T10:45:19.284Z,55.45
2023-04-08T10:47:28.452Z,55.11
2023-04-08T10:49:35.577Z,55.52
2023-04-08T10:51:39.502Z,55.94
2023-04-08T10:53:42.123Z,56.53
2023-04-08T10:55:44.735Z,55.43
2023-04-08T10:57:47.358Z,55.14
2023-04-08T10:59:49.897Z,54.79
2023-04-08T11:01:52.489Z,54.80
2023-04-08T11:03:56.689Z,54.90
2023-04-08T11:05:59.630Z,54.69
2023-04-08T11:08:02.889Z,54.85
2023-04-08T11:10:05.995Z,55.37
2023-04-08T11:12:09.057Z,55.30
2023-04-08T11:14:12.116Z,55.41
2023-04-08T11:16:18.476Z,54.70
2023-04-08T11:18:22.771Z,54.95
2023-04-08T11:20:26.940Z,54.52
2023-04-08T11:22:30.945Z,54.65
2023-04-08T11:24:33.589Z,54.99
2023-04-08T11:26:37.725Z,55.17
2023-04-08T11:28:40.479Z,54.90
2023-04-08T11:30:43.866Z,54.31
2023-04-08T11:32:46.754Z,54.08
2023-04-08T11:34:49.583Z,54.59
2023-04-08T11:36:53.611Z,54.34
2023-04-08T11:38:56.436Z,54.41
2023-04-08T11:41:00.979Z,53.77
2023-04-08T11:43:10.720Z,53.68
2023-04-08T11:45:14.422Z,53.59
2023-04-08T11:47:17.154Z,53.42
2023-04-08T11:49:19.710Z,53.97
2023-04-08T11:51:22.392Z,53.91
2023-04-08T11:53:26.975Z,53.56
2023-04-08T11:55:30.845Z,53.60
2023-04-08T11:57:33.635Z,53.84
2023-04-08T11:59:36.329Z,54.06
2023-04-08T12:01:39.027Z,53.64
2023-04-08T12:03:55.092Z,53.72
2023-04-08T12:05:59.549Z,53.49
2023-04-08T12:08:02.322Z,53.39
2023-04-08T12:10:07.724Z,52.93
2023-04-08T12:12:10.247Z,52.95
2023-04-08T12:14:12.810Z,52.87
2023-04-08T12:16:15.382Z,52.76
2023-04-08T12:18:17.977Z,52.72
2023-04-08T12:20:20.767Z,52.11
2023-04-08T12:22:23.522Z,52.11
2023-04-08T12:24:29.426Z,52.07
2023-04-08T12:26:33.312Z,52.48
2023-04-08T12:28:36.318Z,52.06
2023-04-08T12:30:38.934Z,51.73
2023-04-08T12:32:42.669Z,51.94
2023-04-08T12:34:45.360Z,51.72
2023-04-08T12:36:49.140Z,51.60
2023-04-08T12:38:51.920Z,51.80
2023-04-08T12:40:55.282Z,51.90
2023-04-08T12:42:59.175Z,51.62
2023-04-08T12:45:01.782Z,51.46
2023-04-08T12:47:04.399Z,51.57
2023-04-08T12:49:07.274Z,51.56
2023-04-08T12:51:10.607Z,51.70
2023-04-08T12:53:13.258Z,52.35
2023-04-08T12:55:16.280Z,52.46
2023-04-08T12:57:18.835Z,52.59
2023-04-08T12:59:22.790Z,52.39
2023-04-08T13:01:25.666Z,52.39
2023-04-08T13:03:30.489Z,51.89
2023-04-08T13:07:42.708Z,51.45
2023-04-08T13:09:45.922Z,51.55
2023-04-08T13:11:48.470Z,51.60
2023-04-08T13:13:51.023Z,51.31
2023-04-08T13:15:55.171Z,51.71
2023-04-08T13:17:57.775Z,51.57
2023-04-08T13:20:00.744Z,51.36
2023-04-08T13:22:03.300Z,51.92
2023-04-08T13:24:06.656Z,52.05
2023-04-08T13:26:12.388Z,51.08
2023-04-08T13:28:15.568Z,51.45
2023-04-08T13:30:18.262Z,51.80
2023-04-08T13:32:22.225Z,51.55
2023-04-08T13:34:24.791Z,51.88
2023-04-08T13:36:28.379Z,51.95
2023-04-08T13:38:30.959Z,52.31
2023-04-08T13:40:33.481Z,52.57
2023-04-08T13:42:36.092Z,53.93
2023-04-08T13:44:39.198Z,54.28
2023-04-08T13:46:42.298Z,55.27
2023-04-08T13:48:46.220Z,55.61
2023-04-08T13:50:49.265Z,55.71
2023-04-08T13:52:51.816Z,55.97
2023-04-08T13:54:54.353Z,56.08
2023-04-08T13:56:57.539Z,55.52
2023-04-08T13:59:00.477Z,56.01
2023-04-08T14:01:03.520Z,55.68
2023-04-08T14:03:06.122Z,55.38
2023-04-08T14:05:10.430Z,55.32
2023-04-08T14:07:13.149Z,55.15
2023-04-08T14:09:15.713Z,55.04
2023-04-08T14:11:18.299Z,55.26
2023-04-08T14:13:20.938Z,55.36
2023-04-08T14:15:23.483Z,55.36
2023-04-08T14:17:26.168Z,55.66
2023-04-08T14:19:28.892Z,55.47
2023-04-08T14:21:32.913Z,55.21
2023-04-08T14:23:35.788Z,55.57
2023-04-08T14:25:38.296Z,55.75
2023-04-08T14:27:54.718Z,55.57
2023-04-08T14:30:00.381Z,56.10
2023-04-08T14:32:02.984Z,55.89
2023-04-08T14:34:05.521Z,55.44
2023-04-08T14:36:08.413Z,55.36
2023-04-08T14:38:12.527Z,55.43
2023-04-08T14:40:15.163Z,55.35
2023-04-08T14:42:18.339Z,55.05
2023-04-08T14:44:20.969Z,54.90
2023-04-08T14:46:24.507Z,54.94
2023-04-08T14:48:30.559Z,55.11
2023-04-08T14:50:33.676Z,54.88
2023-04-08T14:52:36.186Z,54.79
2023-04-08T14:54:41.120Z,55.23
2023-04-08T14:56:43.648Z,54.95
2023-04-08T14:58:46.180Z,54.64
2023-04-08T15:50:00.062Z,54.95
2023-04-08T15:52:02.628Z,55.05
2023-04-08T15:54:05.372Z,55.16
2023-04-08T15:56:12.813Z,54.99
2023-04-08T15:58:16.301Z,55.23
2023-04-08T16:00:18.975Z,55.84
2023-04-08T16:02:21.826Z,55.60
2023-04-08T16:04:24.623Z,55.60
2023-04-08T16:06:28.615Z,55.95
2023-04-08T16:08:33.242Z,56.25
2023-04-08T16:10:36.001Z,56.23
2023-04-08T16:12:38.548Z,56.29
2023-04-08T16:14:41.129Z,56.56
2023-04-08T16:16:43.854Z,56.43
2023-04-08T16:18:48.695Z,56.45
2023-04-08T16:20:51.382Z,56.39
2023-04-08T16:22:55.314Z,56.20
2023-04-08T16:24:58.484Z,56.07
2023-04-08T16:27:01.026Z,55.75
2023-04-08T16:29:03.579Z,56.32
2023-04-08T16:31:06.417Z,56.08
2023-04-08T16:33:09.067Z,56.25
2023-04-08T16:35:12.307Z,56.22
2023-04-08T16:37:15.009Z,56.34
2023-04-08T16:39:19.086Z,56.00
2023-04-08T16:41:21.772Z,56.46
2023-04-08T16:43:24.830Z,55.90
2023-04-08T16:45:29.631Z,56.13
2023-04-08T16:47:32.487Z,55.75
2023-04-08T16:49:35.058Z,55.83
2023-04-08T16:51:37.578Z,55.65
2023-04-08T16:53:40.972Z,55.39
2023-04-08T16:55:44.839Z,55.50
2023-04-08T16:57:47.560Z,55.23
2023-04-08T16:59:50.272Z,55.34
2023-04-08T17:01:52.986Z,55.66
2023-04-08T17:03:56.164Z,55.35
2023-04-08T17:06:06.917Z,55.56
2023-04-08T17:08:09.901Z,55.52
2023-04-08T17:10:12.560Z,55.50
2023-04-08T17:12:16.508Z,56.14
2023-04-08T17:14:19.049Z,55.92
2023-04-08T17:16:21.668Z,56.21
2023-04-08T17:18:24.258Z,56.55
2023-04-08T17:20:27.713Z,56.69
2023-04-08T17:22:30.260Z,56.77
2023-04-08T17:24:33.143Z,57.03
2023-04-08T17:26:41.526Z,57.53
2023-04-08T17:28:45.412Z,57.30
2023-04-08T17:30:48.301Z,57.71
2023-04-08T17:32:50.914Z,57.31
2023-04-08T17:34:53.688Z,57.53
2023-04-08T17:36:56.761Z,57.29
2023-04-08T17:38:59.290Z,57.19
2023-04-08T17:41:01.833Z,56.93
2023-04-08T17:43:04.404Z,57.15
2023-04-08T17:45:09.917Z,57.23
2023-04-08T17:47:12.480Z,56.79
2023-04-08T17:49:15.319Z,57.12
2023-04-08T17:51:19.760Z,57.17
2023-04-08T17:53:22.333Z,57.21
2023-04-08T17:55:25.781Z,57.32
2023-04-08T17:57:28.407Z,57.78
2023-04-08T17:59:31.069Z,57.95
2023-04-08T18:01:37.144Z,57.72
2023-04-08T18:03:39.818Z,58.05
2023-04-08T18:05:42.504Z,57.63
2023-04-08T18:07:45.283Z,57.40
2023-04-08T18:09:48.878Z,57.51
2023-04-08T18:11:51.408Z,57.87
2023-04-08T18:13:54.057Z,57.56
2023-04-08T18:15:56.621Z,57.50
2023-04-08T18:18:00.682Z,57.84
2023-04-08T18:20:03.351Z,57.76
2023-04-08T18:22:05.918Z,57.83
2023-04-08T18:24:09.309Z,57.54
2023-04-08T18:26:12.024Z,57.86
2023-04-08T18:28:17.339Z,57.86
2023-04-08T18:30:19.947Z,57.50
2023-04-08T18:32:22.534Z,57.60
2023-04-08T18:34:26.941Z,57.99
2023-04-08T18:36:29.505Z,58.21
2023-04-08T18:38:32.039Z,58.04
2023-04-08T18:40:34.644Z,58.42
2023-04-08T18:42:37.173Z,58.41
2023-04-08T18:44:39.766Z,58.19
2023-04-08T18:46:42.365Z,58.17
2023-04-08T18:48:44.969Z,58.65
2023-04-08T18:50:49.072Z,58.35
2023-04-08T18:52:51.668Z,58.60
2023-04-08T18:54:54.594Z,58.12
2023-04-08T18:56:57.206Z,58.49
2023-04-08T18:58:59.726Z,58.74
2023-04-08T19:01:07.866Z,58.42
2023-04-08T19:03:10.635Z,58.33
2023-04-08T19:05:13.273Z,58.63
2023-04-08T19:07:17.814Z,58.65
2023-04-08T19:09:20.456Z,58.47
2023-04-08T19:11:26.489Z,58.49
2023-04-08T19:13:29.160Z,58.38
2023-04-08T19:15:31.797Z,58.67
2023-04-08T19:17:34.402Z,58.96
2023-04-08T19:19:37.052Z,58.85
2023-04-08T19:21:40.320Z,58.94
2023-04-08T19:23:44.244Z,58.69
2023-04-08T19:25:47.305Z,59.27
2023-04-08T19:27:49.874Z,59.20
2023-04-08T19:29:52.397Z,59.47
2023-04-08T19:31:57.233Z,59.52
2023-04-08T19:33:59.751Z,59.70
2023-04-08T19:36:02.893Z,59.28
2023-04-08T19:38:05.679Z,59.38
2023-04-08T19:40:11.224Z,59.75
2023-04-08T19:42:13.784Z,59.69
2023-04-08T19:44:16.621Z,59.71
2023-04-08T19:46:19.209Z,59.90
2023-04-08T19:48:21.942Z,60.29
2023-04-08T19:50:25.419Z,60.52
2023-04-08T19:52:27.987Z,60.22
2023-04-08T19:54:30.781Z,60.74
2023-04-08T19:56:35.289Z,60.60
2023-04-08T19:58:37.965Z,60.82
2023-04-08T20:00:40.677Z,60.38
2023-04-08T20:02:43.414Z,60.87
2023-04-08T20:04:46.483Z,60.85
2023-04-08T20:06:49.100Z,60.91
2023-04-08T20:08:53.625Z,60.61
2023-04-08T20:10:56.510Z,60.93
2023-04-08T20:13:00.402Z,60.60
2023-04-08T20:15:03.245Z,60.76
2023-04-08T20:17:05.841Z,61.19
2023-04-08T20:19:08.379Z,60.96
2023-04-08T20:21:13.999Z,60.70
2023-04-08T20:23:17.717Z,60.75
2023-04-08T20:25:23.305Z,60.99
2023-04-08T20:27:26.376Z,60.89
2023-04-08T20:29:30.389Z,61.28
2023-04-08T20:31:34.061Z,60.97
2023-04-08T20:33:37.654Z,60.98
2023-04-08T20:35:40.822Z,61.09
2023-04-08T20:37:43.386Z,61.46
2023-04-08T20:39:45.932Z,61.50
2023-04-08T20:41:48.491Z,61.47
2023-04-08T20:43:52.473Z,61.20
2023-04-08T20:45:56.392Z,60.92
2023-04-08T20:47:59.347Z,61.38
2023-04-08T20:50:01.931Z,61.24
2023-04-08T20:52:04.612Z,61.37
2023-04-08T20:54:07.171Z,61.67
2023-04-08T20:56:12.129Z,61.80
2023-04-08T20:58:14.672Z,61.63
2023-04-08T21:00:17.998Z,61.64
2023-04-08T21:02:22.105Z,61.81
2023-04-08T21:04:24.749Z,61.72
2023-04-08T21:06:27.838Z,62.01
2023-04-08T21:08:30.373Z,62.13
2023-04-08T21:10:32.926Z,61.77
2023-04-08T21:12:35.469Z,61.83
2023-04-08T21:14:37.993Z,62.22
2023-04-08T21:16:40.663Z,61.87
2023-04-08T21:18:44.614Z,62.04
2023-04-08T21:20:49.942Z,62.41
2023-04-08T21:22:53.812Z,61.77
2023-04-08T21:24:56.999Z,61.93
2023-04-08T21:27:11.199Z,62.25
2023-04-08T21:29:13.927Z,62.05
2023-04-08T21:31:16.753Z,62.17
2023-04-08T21:33:27.384Z,62.36
2023-04-08T21:35:31.509Z,62.51
2023-04-08T21:37:34.592Z,62.28
2023-04-08T21:41:52.236Z,62.38
2023-04-08T21:47:16.275Z,62.41
2023-04-08T21:49:18.882Z,62.42
2023-04-08T21:51:22.774Z,62.95
2023-04-08T21:53:25.483Z,62.91
2023-04-08T21:55:29.300Z,62.96
2023-04-08T21:57:31.890Z,63.08
2023-04-08T21:59:34.449Z,63.30
2023-04-08T22:01:37.131Z,62.97
2023-04-08T22:03:39.891Z,62.97
2023-04-08T22:05:42.476Z,63.08
2023-04-08T22:07:46.366Z,63.44
2023-04-08T22:09:48.871Z,63.18
2023-04-08T22:11:51.394Z,63.26
2023-04-08T22:13:53.997Z,63.23
2023-04-08T22:15:56.509Z,63.31
2023-04-08T22:17:59.117Z,63.06
2023-04-08T22:20:01.680Z,63.11
2023-04-08T22:22:04.239Z,63.51
2023-04-08T22:24:08.192Z,63.28
2023-04-08T22:26:10.722Z,63.34
2023-04-08T22:28:13.283Z,63.54
2023-04-08T22:30:15.957Z,63.31
2023-04-08T22:32:18.709Z,63.44
2023-04-08T22:34:21.366Z,63.35
2023-04-08T22:36:23.887Z,63.54
2023-04-08T22:38:26.709Z,63.79
2023-04-08T22:40:30.859Z,64.30
2023-04-08T22:42:33.457Z,63.99
2023-04-08T22:44:36.001Z,64.08
2023-04-08T22:46:38.650Z,63.96
2023-04-08T22:48:41.655Z,64.44
2023-04-08T22:50:44.611Z,64.18
2023-04-08T22:52:47.181Z,64.41
2023-04-08T22:54:49.753Z,64.40
2023-04-08T22:56:55.818Z,64.13
2023-04-08T22:58:58.345Z,64.35
2023-04-08T23:01:01.829Z,64.50
2023-04-08T23:03:04.927Z,64.44
2023-04-08T23:05:08.758Z,64.36
2023-04-08T23:07:11.374Z,64.34
2023-04-08T23:09:13.919Z,64.59
2023-04-08T23:11:16.474Z,64.22
2023-04-08T23:13:20.844Z,64.77
2023-04-08T23:15:23.770Z,64.44
2023-04-08T23:17:26.540Z,64.67
2023-04-08T23:19:29.074Z,64.68
2023-04-08T23:21:31.647Z,64.43
2023-04-08T23:23:34.194Z,64.84
2023-04-08T23:25:37.124Z,65.00
2023-04-08T23:27:39.747Z,64.76
2023-04-08T23:29:43.634Z,64.87
2023-04-08T23:31:46.207Z,65.09
2023-04-08T23:33:48.767Z,65.09
2023-04-08T23:35:51.313Z,65.33
2023-04-08T23:37:53.864Z,64.79
2023-04-08T23:39:56.466Z,65.06
2023-04-08T23:41:59.069Z,65.00
2023-04-08T23:44:01.624Z,65.46
2023-04-08T23:46:05.626Z,65.40
2023-04-08T23:48:10.058Z,65.52
2023-04-08T23:50:12.891Z,65.95
2023-04-08T23:52:16.080Z,65.64
2023-04-08T23:54:18.586Z,65.89
2023-04-08T23:56:21.472Z,65.72
2023-04-08T23:58:24.020Z,65.79
